地図

経路データ

SID SEASON NUMBER BASIN SUBBASIN NAME ISO_TIME NATURE LAT LON WMO_WIND WMO_PRES WMO_AGENCY TRACK_TYPE DIST2LAND LANDFALL IFLAG USA_AGENCY USA_ATCF_ID USA_LAT USA_LON USA_RECORD USA_STATUS USA_WIND USA_PRES USA_SSHS USA_R34_NE USA_R34_SE USA_R34_SW USA_R34_NW USA_R50_NE USA_R50_SE USA_R50_SW USA_R50_NW USA_R64_NE USA_R64_SE USA_R64_SW USA_R64_NW USA_POCI USA_ROCI USA_RMW USA_EYE TOKYO_LAT TOKYO_LON TOKYO_GRADE TOKYO_WIND TOKYO_PRES TOKYO_R50_DIR TOKYO_R50_LONG TOKYO_R50_SHORT TOKYO_R30_DIR TOKYO_R30_LONG TOKYO_R30_SHORT TOKYO_LAND CMA_LAT CMA_LON CMA_CAT CMA_WIND CMA_PRES HKO_LAT HKO_LON HKO_CAT HKO_WIND HKO_PRES NEWDELHI_LAT NEWDELHI_LON NEWDELHI_GRADE NEWDELHI_WIND NEWDELHI_PRES NEWDELHI_CI NEWDELHI_DP NEWDELHI_POCI REUNION_LAT REUNION_LON REUNION_TYPE REUNION_WIND REUNION_PRES REUNION_TNUM REUNION_CI REUNION_RMW REUNION_R34_NE REUNION_R34_SE REUNION_R34_SW REUNION_R34_NW REUNION_R50_NE REUNION_R50_SE REUNION_R50_SW REUNION_R50_NW REUNION_R64_NE REUNION_R64_SE REUNION_R64_SW REUNION_R64_NW BOM_LAT BOM_LON BOM_TYPE BOM_WIND BOM_PRES BOM_TNUM BOM_CI BOM_RMW BOM_R34_NE BOM_R34_SE BOM_R34_SW BOM_R34_NW BOM_R50_NE BOM_R50_SE BOM_R50_SW BOM_R50_NW BOM_R64_NE BOM_R64_SE BOM_R64_SW BOM_R64_NW BOM_ROCI BOM_POCI BOM_EYE BOM_POS_METHOD BOM_PRES_METHOD NADI_LAT NADI_LON NADI_CAT NADI_WIND NADI_PRES WELLINGTON_LAT WELLINGTON_LON WELLINGTON_WIND WELLINGTON_PRES DS824_LAT DS824_LON DS824_STAGE DS824_WIND DS824_PRES TD9636_LAT TD9636_LON TD9636_STAGE TD9636_WIND TD9636_PRES TD9635_LAT TD9635_LON TD9635_WIND TD9635_PRES TD9635_ROCI NEUMANN_LAT NEUMANN_LON NEUMANN_CLASS NEUMANN_WIND NEUMANN_PRES MLC_LAT MLC_LON MLC_CLASS MLC_WIND MLC_PRES USA_GUST BOM_GUST BOM_GUST_PER REUNION_GUST REUNION_GUST_PER USA_SEAHGT USA_SEARAD_NE USA_SEARAD_SE USA_SEARAD_SW USA_SEARAD_NW STORM_SPEED STORM_DIR
1955100S22168 1955 27 SP MM NOT_NAMED 1955-04-09 12:00:00 TS -21.7000 168.200 main 135 131 O________OO___ jtwc_sh SH251955 -21.7000 168.200 -1 -21.7000 168.200 TC -21.7000 168.200 2 2 199
1955100S22168 1955 27 SP MM NOT_NAMED 1955-04-09 15:00:00 TS -21.7916 168.151 main 131 118 P________PP___ SH251955 -21.7850 168.148 -1 -21.7850 168.148 TC -21.8047 168.158 2 2 203
1955100S22168 1955 27 SP MM NOT_NAMED 1955-04-09 18:00:00 TS -21.9092 168.104 main 118 113 O________OP___ jtwc_sh SH251955 -21.9000 168.100 -1 -21.9000 168.100 TC -21.9275 168.112 2 3 198
1955100S22168 1955 27 SP MM NOT_NAMED 1955-04-09 21:00:00 TS -22.0755 168.059 main 113 102 P________PP___ SH251955 -22.0700 168.057 -1 -22.0700 168.057 TC -22.0866 168.061 2 4 194
1955100S22168 1955 27 SP MM NOT_NAMED 1955-04-10 00:00:00 TS -22.3000 168.000 main 102 95 O________OO___ jtwc_sh SH251955 -22.3000 168.000 -1 -22.3000 168.000 TC -22.3000 168.000 2 5 194
1955100S22168 1955 27 SP MM NOT_NAMED 1955-04-10 03:00:00 TS -22.5824 167.914 main 98 98 P________PP___ SH251955 -22.5850 167.908 -1 -22.5850 167.908 TC -22.5771 167.927 2 6 196
1955100S22168 1955 27 SP MM NOT_NAMED 1955-04-10 06:00:00 TS -22.8975 167.813 main 106 106 O________OP___ jtwc_sh SH251955 -22.9000 167.800 -1 -22.9000 167.800 TC -22.8924 167.838 2 7 197
1955100S22168 1955 27 SP MM NOT_NAMED 1955-04-10 09:00:00 TS -23.2188 167.710 main 121 121 P________PP___ SH251955 -23.2225 167.700 -1 -23.2225 167.700 TC -23.2115 167.730 2 6 198
1955100S22168 1955 27 SP MM NOT_NAMED 1955-04-10 12:00:00 TS -23.5000 167.600 main 142 142 O________OO___ jtwc_sh SH251955 -23.5000 167.600 -1 -23.5000 167.600 TC -23.5000 167.600 2 5 202
1955100S22168 1955 27 SP MM NOT_NAMED 1955-04-10 15:00:00 TS -23.6761 167.510 main 157 157 P________PP___ SH251955 -23.6649 167.522 -1 -23.6649 167.522 TC -23.6983 167.486 2 4 212
1955100S22168 1955 27 SP MM NOT_NAMED 1955-04-10 18:00:00 TS -23.8214 167.382 main 164 164 O________OP___ jtwc_sh SH251955 -23.8000 167.400 -1 -23.8000 167.400 TC -23.8643 167.346 2 4 223
1955100S22168 1955 27 SP MM NOT_NAMED 1955-04-10 21:00:00 TS -23.9976 167.183 main 181 180 P________PP___ SH251955 -23.9849 167.195 -1 -23.9849 167.195 TC -24.0231 167.158 2 6 229
1955100S22168 1955 27 SP MM NOT_NAMED 1955-04-11 00:00:00 TS -24.2000 166.900 main 201 201 O________OO___ jtwc_sh SH251955 -24.2000 166.900 -1 -24.2000 166.900 TC -24.2000 166.900 2 7 233
1955100S22168 1955 27 SP MM NOT_NAMED 1955-04-11 03:00:00 TS -24.4406 166.538 main 224 224 P________PP___ SH251955 -24.4425 166.530 -1 -24.4425 166.530 TC -24.4368 166.555 2 9 235
1955100S22168 1955 27 SP MM NOT_NAMED 1955-04-11 06:00:00 TS -24.6976 166.114 main 264 264 O________OP___ jtwc_sh SH251955 -24.7000 166.100 -1 -24.7000 166.100 TC -24.6928 166.141 2 9 237
1955100S22168 1955 27 SP MM NOT_NAMED 1955-04-11 09:00:00 TS -24.9557 165.670 main 307 307 P________PP___ SH251955 -24.9574 165.665 -1 -24.9574 165.665 TC -24.9523 165.680 2 10 239
1955100S22168 1955 27 SP MM NOT_NAMED 1955-04-11 12:00:00 TS -25.2000 165.200 main 346 346 O________OO___ jtwc_sh SH251955 -25.2000 165.200 -1 -25.2000 165.200 TC -25.2000 165.200 2 10 243
1955100S22168 1955 27 SP MM NOT_NAMED 1955-04-11 15:00:00 TS -25.4072 164.705 main 387 387 P________PP___ SH251955 -25.4075 164.700 -1 -25.4075 164.700 TC -25.4065 164.715 2 10 246
1955100S22168 1955 27 SP MM NOT_NAMED 1955-04-11 18:00:00 TS -25.6001 164.206 main 431 431 O________OP___ jtwc_sh SH251955 -25.6000 164.200 -1 -25.6000 164.200 TC -25.6004 164.219 2 10 246
1955100S22168 1955 27 SP MM NOT_NAMED 1955-04-11 21:00:00 TS -25.7929 163.736 main 477 477 P________PP___ SH251955 -25.7924 163.735 -1 -25.7924 163.735 TC -25.7941 163.740 2 9 244
1955100S22168 1955 27 SP MM NOT_NAMED 1955-04-12 00:00:00 TS -26.0000 163.300 main 519 519 O________OO___ jtwc_sh SH251955 -26.0000 163.300 -1 -26.0000 163.300 TC -26.0000 163.300 2 9 240
1955100S22168 1955 27 SP MM NOT_NAMED 1955-04-12 03:00:00 TS -26.2401 162.880 main 561 561 P________PP___ SH251955 -26.2425 162.870 -1 -26.2425 162.870 TC -26.2352 162.899 2 9 235
1955100S22168 1955 27 SP MM NOT_NAMED 1955-04-12 06:00:00 TS -26.4949 162.515 main 612 612 O________OP___ jtwc_sh SH251955 -26.5000 162.500 -1 -26.5000 162.500 TC -26.4846 162.545 2 8 229
1955100S22168 1955 27 SP MM NOT_NAMED 1955-04-12 09:00:00 TS -26.7471 162.223 main 647 647 P________PP___ SH251955 -26.7499 162.212 -1 -26.7499 162.212 TC -26.7417 162.243 2 7 222
1955100S22168 1955 27 SP MM NOT_NAMED 1955-04-12 12:00:00 TS -27.0000 162.000 main 686 686 O________OO___ jtwc_sh SH251955 -27.0000 162.000 -1 -27.0000 162.000 TC -27.0000 162.000 2 6 215
1955100S22168 1955 27 SP MM NOT_NAMED 1955-04-12 15:00:00 TS -27.2470 161.834 main 716 716 P________PP___ SH251955 -27.2499 161.827 -1 -27.2499 161.827 TC -27.2411 161.849 2 6 207
1955100S22168 1955 27 SP MM NOT_NAMED 1955-04-12 18:00:00 TS -27.4947 161.716 main 748 748 O________OP___ jtwc_sh SH251955 -27.5000 161.700 -1 -27.5000 161.700 TC -27.4840 161.748 2 5 200
1955100S22168 1955 27 SP MM NOT_NAMED 1955-04-12 21:00:00 TS -27.7398 161.636 main 772 772 P________PP___ SH251955 -27.7423 161.630 -1 -27.7423 161.630 TC -27.7349 161.648 2 5 201
1955100S22168 1955 27 SP MM NOT_NAMED 1955-04-13 00:00:00 TS -28.0000 161.500 main 774 742 O________OO___ jtwc_sh SH251955 -28.0000 161.500 -1 -28.0000 161.500 TC -28.0000 161.500 2 7 217
1955100S22168 1955 27 SP MM NOT_NAMED 1955-04-13 03:00:00 TS -28.2934 161.173 main 742 701 P________PP___ SH251955 -28.2927 161.180 -1 -28.2927 161.180 TC -28.2948 161.157 2 9 226
1955100S22168 1955 27 SP MM NOT_NAMED 1955-04-13 06:00:00 TS -28.6005 160.790 main 701 670 O________OP___ jtwc_sh SH251955 -28.6000 160.800 -1 -28.6000 160.800 TC -28.6014 160.770 2 9 227
1955100S22168 1955 27 SP MM NOT_NAMED 1955-04-13 09:00:00 TS -28.9074 160.435 main 661 641 P________PP___ SH251955 -28.9076 160.440 -1 -28.9076 160.440 TC -28.9071 160.423 2 8 221
1955100S22168 1955 27 SP MM NOT_NAMED 1955-04-13 12:00:00 TS -29.2000 160.200 main 641 641 O________OO___ jtwc_sh SH251955 -29.2000 160.200 -1 -29.2000 160.200 TC -29.2000 160.200 2 6 202
1955100S22168 1955 27 SP MM NOT_NAMED 1955-04-13 15:00:00 TS -29.4622 160.174 main 643 643 P________PP___ SH251955 -29.4573 160.167 -1 -29.4573 160.167 TC -29.4719 160.188 2 5 170
1955100S22168 1955 27 SP MM NOT_NAMED 1955-04-13 18:00:00 TS -29.7098 160.304 main 654 654 O________OP___ jtwc_sh SH251955 -29.7000 160.300 -1 -29.7000 160.300 TC -29.7293 160.311 2 6 149
1955100S22168 1955 27 SP MM NOT_NAMED 1955-04-13 21:00:00 TS -29.9624 160.518 main 678 678 P________PP___ SH251955 -29.9575 160.512 -1 -29.9575 160.512 TC -29.9721 160.529 2 7 139
1955100S22168 1955 27 SP MM NOT_NAMED 1955-04-14 00:00:00 TS -30.2000 160.800 main 710 710 O________OO___ jtwc_sh SH251955 -30.2000 160.800 -1 -30.2000 160.800 TC -30.2000 160.800 2 7 132
1955100S22168 1955 27 SP MM NOT_NAMED 1955-04-14 03:00:00 TS -30.4072 161.083 main 742 742 P________PP___ SH251955 -30.4075 161.093 -1 -30.4075 161.093 TC -30.4066 161.065 2 6 128
1955100S22168 1955 27 SP MM NOT_NAMED 1955-04-14 06:00:00 TS -30.6001 161.390 main 775 775 O________OP___ jtwc_sh SH251955 -30.6000 161.400 -1 -30.6000 161.400 TC -30.6004 161.370 2 7 126
1955100S22168 1955 27 SP MM NOT_NAMED 1955-04-14 09:00:00 TS -30.7980 161.702 main 808 808 P________PP___ SH251955 -30.8000 161.708 -1 -30.8000 161.708 TC -30.7940 161.690 2 7 127
1955100S22168 1955 27 SP MM NOT_NAMED 1955-04-14 12:00:00 TS -31.0000 162.000 main 841 841 O________OO___ jtwc_sh SH251955 -31.0000 162.000 -1 -31.0000 162.000 TC -31.0000 162.000 2 6 129
1955100S22168 1955 27 SP MM NOT_NAMED 1955-04-14 15:00:00 TS -31.1745 162.252 main 872 872 P________PP___ SH251955 -31.1849 162.258 -1 -31.1849 162.258 TC -31.1537 162.239 2 6 132
1955100S22168 1955 27 SP MM NOT_NAMED 1955-04-14 18:00:00 TS -31.3780 162.489 main 892 892 O________OP___ jtwc_sh SH251955 -31.4000 162.500 -1 -31.4000 162.500 TC -31.3340 162.468 2 6 138
1955100S22168 1955 27 SP MM NOT_NAMED 1955-04-14 21:00:00 TS -31.6157 162.723 main 911 911 P________PP___ SH251955 -31.6248 162.728 -1 -31.6248 162.728 TC -31.5974 162.712 2 8 145
1955100S22168 1955 27 SP MM NOT_NAMED 1955-04-15 00:00:00 TS -32.0000 163.000 main 933 876 O________OO___ jtwc_sh SH251955 -32.0000 163.000 -1 -32.0000 163.000 TC -32.0000 163.000 2 12 151
1955100S22168 1955 27 SP MM NOT_NAMED 1955-04-15 03:00:00 TS -32.6233 163.386 main 876 821 P________PP___ SH251955 -32.6250 163.370 -1 -32.6250 163.370 TC -32.6197 163.418 2 16 153
1955100S22168 1955 27 SP MM NOT_NAMED 1955-04-15 06:00:00 TS -33.3915 163.827 main 819 760 O________OP___ jtwc_sh SH251955 -33.4000 163.800 -1 -33.4000 163.800 TC -33.3745 163.880 2 18 154
1955100S22168 1955 27 SP MM NOT_NAMED 1955-04-15 09:00:00 TS -34.1974 164.295 main 760 721 P________PP___ SH251955 -34.2002 164.279 -1 -34.2002 164.279 TC -34.1918 164.327 2 18 156
1955100S22168 1955 27 SP MM NOT_NAMED 1955-04-15 12:00:00 TS -35.0000 164.700 main 722 707 O________OO___ jtwc_sh SH251955 -35.0000 164.700 -1 -35.0000 164.700 TC -35.0000 164.700 2 16 161
1955100S22168 1955 27 SP MM NOT_NAMED 1955-04-15 15:00:00 TS -35.7294 164.957 main 702 702 P________PP___ SH251955 -35.7222 164.961 -1 -35.7222 164.961 TC -35.7437 164.950 2 14 167
1955100S22168 1955 27 SP MM NOT_NAMED 1955-04-15 18:00:00 TS -36.4094 165.098 main 709 709 O________OP___ jtwc_sh SH251955 -36.4000 165.100 -1 -36.4000 165.100 TC -36.4283 165.093 2 13 173
1955100S22168 1955 27 SP MM NOT_NAMED 1955-04-15 21:00:00 TS -37.0613 165.166 main 725 690 P________PP___ SH251955 -37.0551 165.167 -1 -37.0551 165.167 TC -37.0738 165.165 2 13 176
1955100S22168 1955 27 SP MM NOT_NAMED 1955-04-16 00:00:00 TS -37.7000 165.200 main 690 O________OO___ jtwc_sh SH251955 -37.7000 165.200 -1 -37.7000 165.200 TC -37.7000 165.200 2 13 178

デジタル台風データ・検索

IBTrACS Databaseについて

本データベースは、米国NOAAが公開する1842年以降の世界の熱帯低気圧のベストトラックデータアーカイブInternational Best Track Archive for Climate Stewardship (IBTrACS)を、ウェブで閲覧しやすい形式に変換したものです。

最終更新日:2021-11-26